createdAt,value
2023-03-29T00:34:36.103Z,100055.75
2023-03-29T00:37:08.688Z,100051.41
2023-03-29T00:39:37.596Z,100047.38
2023-03-29T00:42:05.709Z,100055.25
2023-03-29T00:45:00.149Z,100061.13
2023-03-29T00:47:32.571Z,100054.25
2023-03-29T00:50:06.164Z,100064.31
2023-03-29T00:52:35.756Z,100064.28
2023-03-29T00:55:07.853Z,100065.28
2023-03-29T00:57:37.420Z,100059.44
2023-03-29T01:00:10.442Z,100047.34
2023-03-29T01:02:41.048Z,100048.34
2023-03-29T01:05:13.260Z,100055.19
2023-03-29T01:07:48.208Z,100048.84
2023-03-29T01:10:21.696Z,100048.19
2023-03-29T01:12:54.716Z,100046.81
2023-03-29T01:15:26.609Z,100054.88
2023-03-29T01:17:58.048Z,100052.69
2023-03-29T01:20:38.953Z,100060.59
2023-03-29T01:23:27.381Z,100058.88
2023-03-29T01:26:03.122Z,100053.16
2023-03-29T01:28:37.050Z,100050.97
2023-03-29T01:31:09.537Z,100054.13
2023-03-29T01:33:41.890Z,100051.97
2023-03-29T01:36:19.296Z,100052.81
2023-03-29T01:38:54.581Z,100060.13
2023-03-29T01:41:23.719Z,100057.47
2023-03-29T01:44:00.115Z,100059.97
2023-03-29T01:46:34.678Z,100060.63
2023-03-29T01:49:11.240Z,100052.31
2023-03-29T01:51:43.640Z,100052.47
2023-03-29T01:54:17.602Z,100047.75
2023-03-29T01:56:49.173Z,100041.41
2023-03-29T01:59:23.321Z,100054.88
2023-03-29T02:01:54.666Z,100047.75
2023-03-29T02:04:26.620Z,100050.06
2023-03-29T02:06:56.694Z,100045.38
2023-03-29T02:09:25.136Z,100038.19
2023-03-29T02:11:54.470Z,100039.91
2023-03-29T02:14:24.809Z,100037.31
2023-03-29T02:16:52.783Z,100037.00
2023-03-29T02:19:21.829Z,100029.13
2023-03-29T02:21:56.971Z,100027.84
2023-03-29T02:24:26.361Z,100027.06
2023-03-29T02:26:54.463Z,100024.69
2023-03-29T02:29:23.863Z,100028.53
2023-03-29T02:31:56.434Z,100022.41
2023-03-29T02:34:30.046Z,100019.63
2023-03-29T02:37:01.943Z,100020.09
2023-03-29T02:39:31.822Z,100010.47
2023-03-29T02:42:00.696Z,100010.66
2023-03-29T02:44:32.853Z,100009.34
2023-03-29T02:47:08.364Z,100005.66
2023-03-29T02:49:36.480Z,100011.84
2023-03-29T02:52:10.475Z,100009.56
2023-03-29T02:54:43.559Z,100004.13
2023-03-29T02:57:12.422Z,100003.38
2023-03-29T02:59:44.065Z,99995.94
2023-03-29T03:02:13.757Z,99998.16
2023-03-29T03:04:41.809Z,100003.03
2023-03-29T03:07:09.802Z,99993.16
2023-03-29T03:09:37.809Z,99996.69
2023-03-29T03:12:06.368Z,99985.81
2023-03-29T03:14:34.497Z,99994.91
2023-03-29T03:17:04.868Z,99989.75
2023-03-29T03:19:33.133Z,99988.63
2023-03-29T03:22:01.115Z,99988.59
2023-03-29T03:24:29.217Z,99995.69
2023-03-29T03:26:58.125Z,99995.41
2023-03-29T03:29:26.275Z,99992.59
2023-03-29T03:31:54.469Z,99977.53
2023-03-29T03:34:24.171Z,99988.63
2023-03-29T03:36:52.111Z,99984.13
2023-03-29T03:39:20.112Z,99983.13
2023-03-29T03:41:48.063Z,99985.13
2023-03-29T03:44:16.026Z,99984.50
2023-03-29T03:46:44.040Z,99979.84
2023-03-29T03:49:12.193Z,99975.47
2023-03-29T03:51:42.373Z,99974.16
2023-03-29T03:54:10.304Z,99968.13
2023-03-29T03:56:38.276Z,99962.81
2023-03-29T03:59:07.144Z,99964.81
2023-03-29T04:01:37.878Z,99957.44
2023-03-29T04:04:06.345Z,99954.94
2023-03-29T04:06:34.364Z,99954.78
2023-03-29T04:09:04.304Z,99950.97
2023-03-29T04:11:32.331Z,99954.63
2023-03-29T04:14:00.469Z,99949.78
2023-03-29T04:16:29.015Z,99940.06
2023-03-29T04:18:57.471Z,99946.44
2023-03-29T04:21:25.606Z,99951.75
2023-03-29T04:23:53.583Z,99947.72
2023-03-29T04:26:23.061Z,99934.66
2023-03-29T04:28:51.008Z,99942.31
2023-03-29T04:31:18.995Z,99936.81
2023-03-29T04:33:47.677Z,99937.06
2023-03-29T04:36:16.151Z,99925.97
2023-03-29T04:38:47.354Z,99939.38
2023-03-29T04:41:15.895Z,99941.38
2023-03-29T04:43:46.466Z,99942.94
2023-03-29T04:46:14.992Z,99941.22
2023-03-29T04:48:43.670Z,99945.16
2023-03-29T04:51:11.637Z,99953.50
2023-03-29T04:53:39.646Z,99953.03
2023-03-29T04:56:08.516Z,99953.06
2023-03-29T04:58:36.416Z,99953.06
2023-03-29T05:01:06.274Z,99949.50
2023-03-29T05:03:34.452Z,99950.34
2023-03-29T05:06:07.245Z,99954.69
2023-03-29T05:08:39.127Z,99951.44
2023-03-29T05:11:08.444Z,99959.31
2023-03-29T05:13:36.902Z,99952.44
2023-03-29T05:16:07.969Z,99961.00
2023-03-29T05:18:36.020Z,99963.81
2023-03-29T05:21:04.336Z,99960.69
2023-03-29T05:23:32.676Z,99957.00
2023-03-29T05:26:00.832Z,99959.31
2023-03-29T05:28:28.837Z,99954.28
2023-03-29T05:31:05.784Z,99961.50
2023-03-29T05:33:36.571Z,99953.97
2023-03-29T05:36:06.506Z,99947.56
2023-03-29T05:38:34.689Z,99961.94
2023-03-29T05:41:03.074Z,99955.28
2023-03-29T05:43:31.632Z,99960.63
2023-03-29T05:45:59.892Z,99962.25
2023-03-29T05:48:28.792Z,99962.94
2023-03-29T05:50:59.084Z,99965.22
2023-03-29T05:53:28.713Z,99971.53
2023-03-29T05:55:57.234Z,99967.69
2023-03-29T05:58:26.781Z,99944.22
2023-03-29T06:00:55.155Z,99961.94
2023-03-29T06:03:27.706Z,99967.63
2023-03-29T06:06:02.505Z,99965.84
2023-03-29T06:08:31.739Z,99968.22
2023-03-29T06:11:04.444Z,99966.44
2023-03-29T06:13:34.647Z,99968.34
2023-03-29T06:16:04.333Z,99967.19
2023-03-29T06:18:32.623Z,99975.28
2023-03-29T06:21:03.545Z,99983.34
2023-03-29T06:23:32.257Z,99977.38
2023-03-29T06:26:00.775Z,99983.44
2023-03-29T06:28:28.914Z,99983.47
2023-03-29T06:31:02.840Z,99979.53
2023-03-29T06:33:32.480Z,99985.41
2023-03-29T06:36:01.901Z,99977.25
2023-03-29T06:38:30.915Z,99987.34
2023-03-29T06:41:04.004Z,99970.41
2023-03-29T06:43:33.492Z,99988.53
2023-03-29T06:46:02.735Z,99980.00
2023-03-29T06:48:30.801Z,99975.81
2023-03-29T06:50:58.815Z,99984.34
2023-03-29T06:53:28.181Z,99982.34
2023-03-29T06:55:56.444Z,99975.97
2023-03-29T06:58:24.381Z,99985.69
2023-03-29T07:00:53.985Z,99984.34
2023-03-29T07:03:23.649Z,99986.53
2023-03-29T07:05:56.825Z,99986.00
2023-03-29T07:08:31.312Z,99986.81
2023-03-29T07:11:01.478Z,99974.22
2023-03-29T07:13:30.558Z,99970.22
2023-03-29T07:15:58.628Z,99967.91
2023-03-29T07:18:26.817Z,99966.53
2023-03-29T07:20:54.763Z,99963.25
2023-03-29T07:23:22.824Z,99954.44
2023-03-29T07:25:51.295Z,99951.16
2023-03-29T07:28:20.578Z,99950.13
2023-03-29T07:30:49.680Z,99955.06
2023-03-29T07:33:17.838Z,99946.19
2023-03-29T07:35:48.159Z,99942.34
2023-03-29T07:38:16.573Z,99946.75
2023-03-29T07:40:44.545Z,99947.53
2023-03-29T07:43:12.480Z,99946.44
2023-03-29T07:45:42.357Z,99944.19
2023-03-29T07:48:10.506Z,99946.66
2023-03-29T07:50:38.641Z,99950.34
2023-03-29T07:53:06.604Z,99942.59
2023-03-29T07:55:34.555Z,99945.16
2023-03-29T07:58:03.814Z,99936.88
2023-03-29T08:00:33.118Z,99935.84
2023-03-29T08:03:03.845Z,99935.84
2023-03-29T08:05:40.899Z,99942.53
2023-03-29T08:08:10.228Z,99935.84
2023-03-29T08:10:39.525Z,99935.22
2023-03-29T08:13:09.159Z,99937.72
2023-03-29T08:15:39.423Z,99935.44
2023-03-29T08:18:09.449Z,99936.50
2023-03-29T08:20:37.746Z,99926.47
2023-03-29T08:23:06.508Z,99932.31
2023-03-29T08:25:35.231Z,99941.63
2023-03-29T08:28:03.156Z,99927.28
2023-03-29T08:30:31.254Z,99932.06
2023-03-29T08:32:59.245Z,99934.38
2023-03-29T08:35:28.703Z,99931.28
2023-03-29T08:37:56.902Z,99939.19
2023-03-29T08:40:27.565Z,99931.03
2023-03-29T08:43:15.281Z,99936.63
2023-03-29T08:45:51.289Z,99926.56
2023-03-29T08:48:26.949Z,99921.06
2023-03-29T08:51:02.730Z,99927.78
2023-03-29T08:53:35.052Z,99918.13
2023-03-29T08:56:08.715Z,99922.28
2023-03-29T08:58:38.969Z,99915.63
2023-03-29T09:01:11.422Z,99911.53
2023-03-29T09:03:44.655Z,99909.34
2023-03-29T09:06:14.428Z,99906.31
2023-03-29T09:08:45.031Z,99911.81
2023-03-29T09:11:29.147Z,99907.53
2023-03-29T09:14:12.298Z,99902.59
2023-03-29T09:16:50.471Z,99905.03
2023-03-29T09:19:27.751Z,99898.63
2023-03-29T09:22:04.302Z,99902.63
2023-03-29T09:24:43.722Z,99901.31
2023-03-29T10:24:01.580Z,99687.34
2023-03-29T10:26:32.950Z,99840.38
2023-03-29T10:29:04.194Z,99834.38
2023-03-29T10:31:33.254Z,99834.97
2023-03-29T10:34:06.319Z,99827.72
2023-03-29T10:36:34.467Z,99826.97
2023-03-29T10:39:06.483Z,99826.72
2023-03-29T10:41:36.556Z,99825.66
2023-03-29T10:44:05.141Z,99816.56
2023-03-29T10:46:36.627Z,99812.63
2023-03-29T10:49:10.308Z,99814.22
2023-03-29T10:51:38.526Z,99807.78
2023-03-29T10:54:14.808Z,99802.56
2023-03-29T10:56:46.080Z,99813.47
2023-03-29T10:59:25.588Z,99799.69
2023-03-29T11:02:06.166Z,99787.09
2023-03-29T11:04:43.849Z,99788.53
2023-03-29T11:07:32.125Z,99787.44
2023-03-29T11:10:15.850Z,99783.53
2023-03-29T11:12:50.750Z,99782.41
2023-03-29T11:15:33.625Z,99781.84
2023-03-29T11:18:16.220Z,99783.16
2023-03-29T11:20:51.689Z,99778.44
2023-03-29T11:23:35.930Z,99770.91
2023-03-29T11:26:12.957Z,99770.53
2023-03-29T11:28:49.812Z,99773.94
2023-03-29T11:31:30.063Z,99760.38
2023-03-29T11:34:12.364Z,99755.84
2023-03-29T11:36:50.496Z,99758.19
2023-03-29T11:39:28.314Z,99753.81
2023-03-29T11:42:04.928Z,99754.88
2023-03-29T11:44:33.412Z,99746.63
2023-03-29T11:47:05.045Z,99753.75
2023-03-29T11:49:38.411Z,99751.66
2023-03-29T11:52:14.086Z,99733.91
2023-03-29T11:54:47.244Z,99737.59
2023-03-29T11:57:23.295Z,99733.81
2023-03-29T11:59:58.149Z,99734.81
2023-03-29T12:02:33.817Z,99729.06
2023-03-29T12:05:07.560Z,99728.56
2023-03-29T12:07:41.160Z,99729.13
2023-03-29T12:10:17.958Z,99723.81
2023-03-29T12:12:54.105Z,99727.19
2023-03-29T12:15:25.114Z,99717.97
2023-03-29T12:18:08.602Z,99716.13
2023-03-29T12:20:39.838Z,99713.72
2023-03-29T12:23:09.057Z,99720.59
2023-03-29T12:25:46.757Z,99716.47
2023-03-29T12:28:28.537Z,99720.59
2023-03-29T12:31:07.232Z,99710.94
2023-03-29T12:33:54.087Z,99708.19
2023-03-29T12:36:41.703Z,99704.34
2023-03-29T12:39:15.417Z,99707.34
2023-03-29T12:41:48.831Z,99703.50
2023-03-29T12:44:21.545Z,99707.31
2023-03-29T12:46:53.252Z,99703.81
2023-03-29T12:49:28.380Z,99702.97
2023-03-29T12:51:58.790Z,99702.41
2023-03-29T12:54:29.491Z,99702.16
2023-03-29T12:57:01.165Z,99699.19
2023-03-29T12:59:39.812Z,99695.16
2023-03-29T13:02:28.461Z,99698.50
2023-03-29T13:05:00.375Z,99691.69
2023-03-29T13:07:44.638Z,99691.16
2023-03-29T13:10:31.490Z,99687.06
2023-03-29T13:13:12.653Z,99680.16
2023-03-29T13:15:44.243Z,99679.63
2023-03-29T13:18:24.421Z,99676.03
2023-03-29T13:21:01.884Z,99676.91
2023-03-29T13:23:43.411Z,99694.16
2023-03-29T13:26:23.814Z,99674.41
2023-03-29T13:29:07.369Z,99663.44
2023-03-29T13:31:44.332Z,99660.88
2023-03-29T13:34:28.138Z,99664.16
2023-03-29T13:37:08.895Z,99664.97
2023-03-29T13:39:37.856Z,99662.81
2023-03-29T13:42:21.695Z,99658.91
2023-03-29T13:44:50.393Z,99664.97
2023-03-29T13:47:48.978Z,99663.38
2023-03-29T13:50:36.021Z,99663.06
2023-03-29T13:53:11.955Z,99666.91
2023-03-29T13:55:47.372Z,99654.47
2023-03-29T13:58:21.321Z,99656.44
2023-03-29T14:00:55.218Z,99654.50
2023-03-29T14:03:30.043Z,99650.16
2023-03-29T14:06:01.923Z,99648.22
2023-03-29T14:08:34.712Z,99645.47
2023-03-29T14:11:06.881Z,99643.81
2023-03-29T14:13:36.462Z,99644.91
2023-03-29T14:16:09.165Z,99643.06
2023-03-29T14:18:42.172Z,99642.25
2023-03-29T14:21:13.553Z,99643.63
2023-03-29T14:23:45.218Z,99638.41
2023-03-29T14:26:18.809Z,99634.56
2023-03-29T14:28:50.089Z,99622.78
2023-03-29T14:31:22.504Z,99626.34
2023-03-29T14:33:55.721Z,99626.34
2023-03-29T14:36:25.213Z,99632.13
2023-03-29T14:38:58.112Z,99623.59
2023-03-29T14:41:30.963Z,99621.63
2023-03-29T14:43:59.874Z,99628.28
2023-03-29T14:46:28.623Z,99621.13
2023-03-29T14:48:58.901Z,99617.81
2023-03-29T14:51:30.539Z,99619.44
2023-03-29T14:54:00.161Z,99611.19
2023-03-29T14:56:28.830Z,99605.47
2023-03-29T14:58:57.830Z,99598.59
2023-03-29T15:01:27.960Z,99597.50
2023-03-29T15:03:58.957Z,99589.81
2023-03-29T15:06:29.614Z,99600.19
2023-03-29T15:09:06.193Z,99578.53
2023-03-29T15:11:35.271Z,99578.84
2023-03-29T15:14:05.878Z,99584.03
2023-03-29T15:16:34.602Z,99581.00
2023-03-29T15:19:04.599Z,99578.56
2023-03-29T15:21:35.684Z,99568.09
2023-03-29T15:24:05.320Z,99565.94
2023-03-29T15:26:35.830Z,99563.47
2023-03-29T15:29:08.711Z,99569.25
2023-03-29T15:31:38.535Z,99553.03
2023-03-29T15:34:09.772Z,99564.03
2023-03-29T15:36:42.504Z,99550.28
2023-03-29T15:39:13.274Z,99542.81
2023-03-29T15:41:41.510Z,99554.63
2023-03-29T15:44:09.893Z,99544.75
2023-03-29T15:46:38.262Z,99537.38
2023-03-29T15:49:11.993Z,99540.91
2023-03-29T15:51:40.511Z,99537.09
2023-03-29T15:54:09.298Z,99538.22
2023-03-29T15:56:46.406Z,99542.06
2023-03-29T15:59:14.504Z,99533.28
2023-03-29T16:01:42.757Z,99533.81
2023-03-29T16:04:14.556Z,99541.72
2023-03-29T16:06:43.209Z,99531.88
2023-03-29T16:09:12.044Z,99531.59
2023-03-29T16:11:40.925Z,99541.50
2023-03-29T16:14:17.875Z,99536.56
2023-03-29T16:16:45.913Z,99536.28
2023-03-29T16:19:15.561Z,99537.66
2023-03-29T16:21:45.007Z,99530.81
2023-03-29T16:24:16.102Z,99530.25
2023-03-29T16:26:44.525Z,99535.75
2023-03-29T16:29:12.867Z,99523.09
2023-03-29T16:31:41.416Z,99524.22
2023-03-29T16:34:13.894Z,99522.84
2023-03-29T16:36:44.231Z,99530.25
2023-03-29T16:39:13.499Z,99517.91
2023-03-29T16:41:42.560Z,99520.38
2023-03-29T16:44:15.246Z,99522.56
2023-03-29T16:46:43.213Z,99524.50
2023-03-29T16:49:18.311Z,99526.94
2023-03-29T16:51:49.592Z,99513.50
2023-03-29T16:54:18.980Z,99525.53
2023-03-29T16:56:47.174Z,99512.38
2023-03-29T16:59:15.459Z,99509.38
2023-03-29T17:01:43.627Z,99518.94
2023-03-29T17:04:11.649Z,99512.63
2023-03-29T17:06:39.625Z,99518.09
2023-03-29T17:09:09.765Z,99516.97
2023-03-29T17:11:37.828Z,99511.22
2023-03-29T17:14:05.868Z,99503.81
2023-03-29T17:16:33.929Z,99515.84
2023-03-29T17:19:01.905Z,99507.88
2023-03-29T17:21:30.046Z,99513.84
2023-03-29T17:23:58.077Z,99512.44
2023-03-29T17:26:27.478Z,99508.28
2023-03-29T17:28:55.428Z,99507.97
2023-03-29T17:31:23.553Z,99509.03
2023-03-29T17:33:52.417Z,99507.09
2023-03-29T17:36:24.135Z,99505.69
2023-03-29T17:38:52.718Z,99504.22
2023-03-29T17:41:21.291Z,99501.13
2023-03-29T17:43:51.028Z,99504.88
2023-03-29T17:46:22.937Z,99507.50
2023-03-29T17:48:52.268Z,99505.47
2023-03-29T17:51:20.814Z,99514.66
2023-03-29T17:53:48.916Z,99516.66
2023-03-29T17:56:17.126Z,99513.81
2023-03-29T17:58:45.157Z,99520.59
2023-03-29T18:01:15.104Z,99509.25
2023-03-29T18:03:43.492Z,99516.16
2023-03-29T18:06:30.861Z,99523.09
2023-03-29T18:09:01.379Z,99510.59
2023-03-29T18:11:29.759Z,99496.69
2023-03-29T18:14:00.679Z,99492.38
2023-03-29T18:16:30.257Z,99484.72
2023-03-29T18:18:58.276Z,99499.81
